createdAt,value
2019-04-26T00:00:40.587Z,0.00
2019-04-26T00:01:40.608Z,0.00
2019-04-26T00:02:40.564Z,0.00
2019-04-26T00:03:40.557Z,0.00
2019-04-26T00:04:40.541Z,0.00
2019-04-26T00:05:40.530Z,0.00
2019-04-26T00:06:40.522Z,0.00
2019-04-26T00:07:40.519Z,0.00
2019-04-26T00:08:40.496Z,0.00
2019-04-26T00:09:40.486Z,0.00
2019-04-26T00:10:40.477Z,0.00
2019-04-26T00:11:40.464Z,0.00
2019-04-26T00:12:40.453Z,0.00
2019-04-26T00:13:40.465Z,0.00
2019-04-26T00:14:40.431Z,0.00
2019-04-26T00:15:40.421Z,0.00
2019-04-26T00:16:40.411Z,0.00
2019-04-26T00:17:40.398Z,0.00
2019-04-26T00:18:40.387Z,0.00
2019-04-26T00:19:40.409Z,0.00
2019-04-26T00:20:40.366Z,0.00
2019-04-26T00:21:40.354Z,0.00
2019-04-26T00:22:40.344Z,0.00
2019-04-26T00:23:41.135Z,0.00
2019-04-26T00:24:40.321Z,0.00
2019-04-26T00:25:40.345Z,0.00
2019-04-26T00:26:40.300Z,0.00
2019-04-26T00:27:40.288Z,0.00
2019-04-26T00:28:40.278Z,0.00
2019-04-26T00:29:40.267Z,0.00
2019-04-26T00:30:40.255Z,0.00
2019-04-26T00:31:40.255Z,0.00
2019-04-26T00:32:40.237Z,0.00
2019-04-26T00:33:40.229Z,0.00
2019-04-26T00:34:40.212Z,0.00
2019-04-26T00:35:47.444Z,0.00
2019-04-26T00:36:41.222Z,0.00
2019-04-26T00:37:40.181Z,0.00
2019-04-26T00:38:40.177Z,0.00
2019-04-26T00:39:40.157Z,0.00
2019-04-26T00:40:40.147Z,0.00
2019-04-26T00:41:40.137Z,0.00
2019-04-26T00:42:40.153Z,0.00
2019-04-26T00:43:40.114Z,0.00
2019-04-26T00:44:40.102Z,0.00
2019-04-26T00:45:40.093Z,0.00
2019-04-26T00:46:40.081Z,0.00
2019-04-26T00:47:40.069Z,0.00
2019-04-26T00:48:40.088Z,0.00
2019-04-26T00:49:43.867Z,0.00
2019-04-26T00:50:40.037Z,0.00
2019-04-26T00:51:40.027Z,0.00
2019-04-26T00:52:40.131Z,0.00
2019-04-26T00:53:40.004Z,0.00
2019-04-26T00:54:40.023Z,0.00
2019-04-26T00:55:39.982Z,0.00
2019-04-26T00:56:39.974Z,0.00
2019-04-26T00:57:39.962Z,0.00
2019-04-26T00:58:39.949Z,0.00
2019-04-26T00:59:39.940Z,0.00
2019-04-26T01:00:39.946Z,0.00
2019-04-26T01:01:39.917Z,0.00
2019-04-26T01:02:39.905Z,0.00
2019-04-26T01:03:39.893Z,0.00
2019-04-26T01:04:39.884Z,0.00
2019-04-26T01:05:39.873Z,0.00
2019-04-26T01:06:39.870Z,0.00
2019-04-26T01:07:39.852Z,0.00
2019-04-26T01:08:39.846Z,0.00
2019-04-26T01:09:39.828Z,0.00
2019-04-26T01:10:39.817Z,0.00
2019-04-26T01:11:39.808Z,0.00
2019-04-26T01:12:39.825Z,0.00
2019-04-26T01:13:39.784Z,0.00
2019-04-26T01:14:39.775Z,0.00
2019-04-26T01:15:39.762Z,0.00
2019-04-26T01:16:39.751Z,0.00
2019-04-26T01:17:39.740Z,0.00
2019-04-26T01:18:39.757Z,0.00
2019-04-26T01:19:39.719Z,0.00
2019-04-26T01:20:39.707Z,0.00
2019-04-26T01:21:39.696Z,0.00
2019-04-26T01:22:39.685Z,0.00
2019-04-26T01:23:39.674Z,0.00
2019-04-26T01:24:39.693Z,0.00
2019-04-26T01:25:39.653Z,0.00
2019-04-26T01:26:39.641Z,0.00
2019-04-26T01:27:39.631Z,0.00
2019-04-26T01:28:39.619Z,0.00
2019-04-26T01:29:39.609Z,0.00
2019-04-26T01:30:39.607Z,0.00
2019-04-26T01:31:39.587Z,0.00
2019-04-26T01:32:39.575Z,0.00
2019-04-26T01:33:39.565Z,0.00
2019-04-26T01:34:39.553Z,0.00
2019-04-26T01:35:39.542Z,0.00
2019-04-26T01:36:39.537Z,0.00
2019-04-26T01:37:39.525Z,0.00
2019-04-26T01:38:39.512Z,0.00
2019-04-26T01:39:39.499Z,0.00
2019-04-26T01:40:39.487Z,0.00
2019-04-26T01:41:39.477Z,0.00
2019-04-26T01:42:39.498Z,0.00
2019-04-26T01:43:39.454Z,0.00
2019-04-26T01:44:39.443Z,0.00
2019-04-26T01:45:39.433Z,0.00
2019-04-26T01:46:39.426Z,0.00
2019-04-26T01:47:39.411Z,0.00
2019-04-26T01:48:39.427Z,0.00
2019-04-26T01:49:39.389Z,0.00
2019-04-26T01:50:39.377Z,0.00
2019-04-26T01:51:39.366Z,0.00
2019-04-26T01:52:39.357Z,0.00
2019-04-26T01:53:39.344Z,0.00
2019-04-26T01:54:39.340Z,0.00
2019-04-26T01:55:39.324Z,0.00
2019-04-26T01:56:39.312Z,0.00
2019-04-26T01:57:39.299Z,0.00
2019-04-26T01:58:39.289Z,0.00
2019-04-26T01:59:39.279Z,0.00
2019-04-26T02:00:39.296Z,0.00
2019-04-26T02:01:39.257Z,0.00
2019-04-26T02:02:39.247Z,0.00
2019-04-26T02:03:39.234Z,0.00
2019-04-26T02:04:39.222Z,0.00
2019-04-26T02:05:39.212Z,0.00
2019-04-26T02:06:39.233Z,0.00
2019-04-26T02:07:39.190Z,0.00
2019-04-26T02:08:39.181Z,0.00
2019-04-26T02:09:39.168Z,0.00
2019-04-26T02:10:39.169Z,0.00
2019-04-26T02:11:39.147Z,0.00
2019-04-26T02:12:39.170Z,0.00
2019-04-26T02:13:39.125Z,0.00
2019-04-26T02:14:39.112Z,0.00
2019-04-26T02:15:39.103Z,0.00
2019-04-26T02:16:39.091Z,0.00
2019-04-26T02:17:39.079Z,0.00
2019-04-26T02:18:39.096Z,0.00
2019-04-26T02:19:39.061Z,0.00
2019-04-26T02:20:39.046Z,0.00
2019-04-26T02:21:39.035Z,0.00
2019-04-26T02:22:39.037Z,0.00
2019-04-26T02:23:39.014Z,0.00
2019-04-26T02:24:39.022Z,0.00
2019-04-26T02:25:38.991Z,0.00
2019-04-26T02:26:38.979Z,0.00
2019-04-26T02:27:38.969Z,0.00
2019-04-26T02:28:38.958Z,0.00
2019-04-26T02:29:38.948Z,0.00
2019-04-26T02:30:38.970Z,0.00
2019-04-26T02:31:38.928Z,0.00
2019-04-26T02:32:38.918Z,0.00
2019-04-26T02:33:38.906Z,0.00
2019-04-26T02:34:38.895Z,0.00
2019-04-26T02:35:38.882Z,0.00
2019-04-26T02:36:56.422Z,0.00
2019-04-26T02:37:39.859Z,0.00
2019-04-26T02:38:38.854Z,0.00
2019-04-26T02:39:38.840Z,0.00
2019-04-26T02:40:38.828Z,0.00
2019-04-26T02:41:38.825Z,0.00
2019-04-26T02:42:38.818Z,0.00
2019-04-26T02:43:38.794Z,0.00
2019-04-26T02:44:38.783Z,0.00
2019-04-26T02:45:38.773Z,0.00
2019-04-26T02:46:38.765Z,0.00
2019-04-26T02:47:39.176Z,0.00
2019-04-26T02:48:38.784Z,0.00
2019-04-26T02:49:38.729Z,0.00
2019-04-26T02:50:38.718Z,0.00
2019-04-26T02:51:38.716Z,0.00
2019-04-26T02:52:39.170Z,0.00
2019-04-26T02:53:38.927Z,0.00
2019-04-26T02:54:38.700Z,0.00
2019-04-26T02:55:42.409Z,0.00
2019-04-26T02:56:40.100Z,0.00
2019-04-26T02:57:38.962Z,0.00
2019-04-26T02:58:39.136Z,0.00
2019-04-26T02:59:40.616Z,0.00
2019-04-26T03:00:39.186Z,0.00
2019-04-26T03:01:40.051Z,0.00
2019-04-26T03:02:40.352Z,0.00
2019-04-26T03:03:39.736Z,0.00
2019-04-26T03:04:39.480Z,0.00
2019-04-26T03:05:39.750Z,0.00
2019-04-26T03:06:40.579Z,0.00
2019-04-26T03:07:39.113Z,0.00
2019-04-26T03:08:39.372Z,0.00
2019-04-26T03:09:38.954Z,0.00
2019-04-26T03:10:40.301Z,0.00
2019-04-26T03:11:39.153Z,0.00
2019-04-26T03:12:39.538Z,0.00
2019-04-26T03:13:40.091Z,0.00
2019-04-26T03:14:39.730Z,0.00
2019-04-26T03:15:38.893Z,0.00
2019-04-26T03:16:40.450Z,0.00
2019-04-26T03:17:39.780Z,0.00
2019-04-26T03:18:39.437Z,0.00
2019-04-26T03:19:39.628Z,0.00
2019-04-26T03:20:38.936Z,0.00
2019-04-26T03:21:39.378Z,0.00
2019-04-26T03:22:39.452Z,0.00
2019-04-26T03:23:55.621Z,0.00
2019-04-26T03:24:41.031Z,0.00
2019-04-26T03:25:40.269Z,0.00
2019-04-26T03:26:39.506Z,0.00
2019-04-26T03:27:39.742Z,0.00
2019-04-26T03:28:39.958Z,0.00
2019-04-26T03:29:39.624Z,0.00
2019-04-26T03:30:46.043Z,0.00
2019-04-26T03:31:51.999Z,0.00
2019-04-26T03:32:49.399Z,0.00
2019-04-26T03:33:49.116Z,0.00
2019-04-26T03:34:48.670Z,0.00
2019-04-26T03:35:51.345Z,0.00
2019-04-26T03:36:42.102Z,4.00
2019-04-26T03:37:39.831Z,4.00
2019-04-26T03:38:39.664Z,4.00
2019-04-26T03:39:40.301Z,4.00
2019-04-26T03:40:39.012Z,0.00
2019-04-26T03:41:39.030Z,0.00
2019-04-26T03:42:38.890Z,0.00
2019-04-26T03:43:39.125Z,4.00
2019-04-26T03:44:38.846Z,4.00
2019-04-26T03:45:38.970Z,4.00
2019-04-26T03:46:39.800Z,4.00
2019-04-26T03:47:40.679Z,4.00
2019-04-26T03:48:39.927Z,4.00
2019-04-26T03:49:39.322Z,4.00
2019-04-26T03:50:39.557Z,4.00
2019-04-26T03:51:39.681Z,8.00
2019-04-26T03:52:40.071Z,4.00
2019-04-26T03:53:39.725Z,4.00
2019-04-26T03:54:39.830Z,8.00
2019-04-26T03:55:39.730Z,8.00
2019-04-26T03:56:39.818Z,8.00
2019-04-26T03:57:38.792Z,8.00
2019-04-26T03:58:40.095Z,8.00
2019-04-26T03:59:38.891Z,8.00
2019-04-26T04:00:39.302Z,8.00
2019-04-26T04:01:39.424Z,12.00
2019-04-26T04:02:39.262Z,12.00
2019-04-26T04:03:40.276Z,16.00
2019-04-26T04:04:39.441Z,16.00
2019-04-26T04:05:39.797Z,16.00
2019-04-26T04:06:57.076Z,16.00
2019-04-26T04:07:43.629Z,20.00
2019-04-26T04:08:40.604Z,20.00
2019-04-26T04:09:39.426Z,16.00
2019-04-26T04:10:39.659Z,16.00
2019-04-26T04:11:40.069Z,20.00
2019-04-26T04:12:39.730Z,20.00
2019-04-26T04:13:38.965Z,24.00
2019-04-26T04:14:39.691Z,24.00
2019-04-26T04:15:38.712Z,24.00
2019-04-26T04:16:39.178Z,20.00
2019-04-26T04:17:39.625Z,24.00
2019-04-26T04:18:38.854Z,24.00
2019-04-26T04:19:39.089Z,24.00
2019-04-26T04:20:39.020Z,28.00
2019-04-26T04:21:39.383Z,28.00
2019-04-26T04:22:40.723Z,28.00
2019-04-26T04:23:39.367Z,28.00
2019-04-26T04:24:39.150Z,28.00
2019-04-26T04:25:39.450Z,32.00
2019-04-26T04:26:39.058Z,32.00
2019-04-26T04:27:39.330Z,28.00
2019-04-26T04:28:38.630Z,32.00
2019-04-26T04:29:48.561Z,32.00
2019-04-26T04:30:41.526Z,36.00
2019-04-26T04:31:38.382Z,32.00
2019-04-26T04:32:39.636Z,36.00
2019-04-26T04:33:37.585Z,36.00
2019-04-26T04:34:37.570Z,36.00
2019-04-26T04:35:37.595Z,40.00
2019-04-26T04:36:37.551Z,44.00
2019-04-26T04:37:54.941Z,44.00
2019-04-26T04:38:38.527Z,44.00
2019-04-26T04:39:37.518Z,44.00
2019-04-26T04:40:37.515Z,44.00
2019-04-26T04:41:37.528Z,44.00
2019-04-26T04:42:37.532Z,44.00
2019-04-26T04:43:37.474Z,44.00
2019-04-26T04:44:37.463Z,44.00
2019-04-26T04:45:37.510Z,44.00
2019-04-26T04:46:37.440Z,44.00
2019-04-26T04:47:37.452Z,48.00
2019-04-26T04:48:37.417Z,44.00
2019-04-26T04:49:37.414Z,48.00
2019-04-26T04:50:37.396Z,48.00
2019-04-26T04:51:37.385Z,52.00
2019-04-26T04:52:37.375Z,48.00
2019-04-26T04:53:37.389Z,52.00
2019-04-26T04:54:37.380Z,52.00
2019-04-26T04:55:37.341Z,56.00
2019-04-26T04:56:37.332Z,56.00
2019-04-26T04:57:37.320Z,56.00
2019-04-26T04:58:37.307Z,64.00
2019-04-26T04:59:37.325Z,64.00
2019-04-26T05:00:37.286Z,68.00
2019-04-26T05:01:37.276Z,68.00
2019-04-26T05:02:37.328Z,72.00
2019-04-26T05:03:37.253Z,72.00
2019-04-26T05:04:37.242Z,72.00
2019-04-26T05:05:37.262Z,76.00
2019-04-26T05:06:37.219Z,76.00
2019-04-26T05:07:37.209Z,80.00
2019-04-26T05:08:37.215Z,76.00
2019-04-26T05:09:37.187Z,84.00
2019-04-26T05:10:37.176Z,84.00
2019-04-26T05:11:37.194Z,84.00
2019-04-26T05:12:37.153Z,80.00
2019-04-26T05:13:37.142Z,80.00
2019-04-26T05:14:37.133Z,84.00
2019-04-26T05:15:37.120Z,88.00
2019-04-26T05:16:37.110Z,88.00
2019-04-26T05:17:37.127Z,88.00
2019-04-26T05:18:37.088Z,88.00
2019-04-26T05:19:37.137Z,88.00
2019-04-26T05:20:37.065Z,88.00
2019-04-26T05:21:37.054Z,88.00
2019-04-26T05:22:37.046Z,88.00
2019-04-26T05:23:37.061Z,88.00
2019-04-26T05:24:37.022Z,92.00
2019-04-26T05:25:37.011Z,92.00
2019-04-26T05:26:37.000Z,88.00
2019-04-26T05:27:36.989Z,92.00
2019-04-26T05:28:36.977Z,92.00
2019-04-26T05:29:36.993Z,88.00
2019-04-26T05:30:36.955Z,92.00
2019-04-26T05:31:36.947Z,92.00
2019-04-26T05:32:36.933Z,92.00
2019-04-26T05:33:36.924Z,88.00
2019-04-26T05:34:36.913Z,88.00
2019-04-26T05:35:36.930Z,88.00
2019-04-26T05:36:36.890Z,88.00
2019-04-26T05:37:37.207Z,88.00
2019-04-26T05:38:36.869Z,88.00
2019-04-26T05:39:36.860Z,88.00
2019-04-26T05:40:36.859Z,88.00
2019-04-26T05:41:36.877Z,88.00
2019-04-26T05:42:36.824Z,88.00
2019-04-26T05:43:36.813Z,88.00
2019-04-26T05:44:36.804Z,88.00
2019-04-26T05:45:36.791Z,92.00
2019-04-26T05:46:36.781Z,92.00
2019-04-26T05:47:36.797Z,92.00
2019-04-26T05:48:36.758Z,92.00
2019-04-26T05:49:36.750Z,92.00
2019-04-26T05:50:36.737Z,92.00
2019-04-26T05:51:36.726Z,92.00
2019-04-26T05:52:36.714Z,88.00
2019-04-26T05:53:36.710Z,88.00
2019-04-26T05:54:36.693Z,96.00
2019-04-26T05:55:36.681Z,92.00
2019-04-26T05:56:36.671Z,92.00
2019-04-26T05:57:36.660Z,96.00
2019-04-26T05:58:36.659Z,96.00
2019-04-26T05:59:36.645Z,96.00
2019-04-26T06:00:36.626Z,96.00
2019-04-26T06:01:36.615Z,96.00
2019-04-26T06:02:36.605Z,92.00
2019-04-26T06:03:36.593Z,92.00
2019-04-26T06:04:36.583Z,92.00
2019-04-26T06:05:36.600Z,92.00
2019-04-26T06:06:36.560Z,92.00
2019-04-26T06:07:36.550Z,92.00
2019-04-26T06:08:36.538Z,92.00
2019-04-26T06:09:36.529Z,92.00
2019-04-26T06:10:36.519Z,96.00
2019-04-26T06:11:36.512Z,96.00
2019-04-26T06:12:36.494Z,96.00
2019-04-26T06:13:36.483Z,100.00
2019-04-26T06:14:36.472Z,100.00
2019-04-26T06:15:36.461Z,100.00
2019-04-26T06:16:36.451Z,100.00
2019-04-26T06:17:36.518Z,96.00
2019-04-26T06:18:36.432Z,104.00
2019-04-26T06:19:36.416Z,104.00
2019-04-26T06:20:36.408Z,104.00
2019-04-26T06:21:36.394Z,108.00
2019-04-26T06:22:36.383Z,108.00
2019-04-26T06:23:36.407Z,108.00
2019-04-26T06:24:36.362Z,112.00
2019-04-26T06:25:36.351Z,116.00
2019-04-26T06:26:36.344Z,112.00
2019-04-26T06:27:36.329Z,116.00
2019-04-26T06:28:36.322Z,120.00
2019-04-26T06:29:36.314Z,120.00
2019-04-26T06:30:45.306Z,120.00
2019-04-26T06:31:37.285Z,124.00
2019-04-26T06:32:36.327Z,120.00
2019-04-26T06:33:36.262Z,124.00
2019-04-26T06:34:36.263Z,128.00
2019-04-26T06:35:36.268Z,128.00
2019-04-26T06:36:36.231Z,132.00
2019-04-26T06:37:36.219Z,128.00
2019-04-26T06:38:43.465Z,128.00
2019-04-26T06:39:37.196Z,132.00
2019-04-26T06:40:41.817Z,132.00
2019-04-26T06:41:37.201Z,132.00
2019-04-26T06:42:36.163Z,136.00
2019-04-26T06:43:36.152Z,132.00
2019-04-26T06:44:36.141Z,136.00
2019-04-26T06:45:36.130Z,136.00
2019-04-26T06:46:36.119Z,136.00
2019-04-26T06:47:36.116Z,136.00
2019-04-26T06:48:36.099Z,136.00
2019-04-26T06:49:36.089Z,136.00
2019-04-26T06:50:36.075Z,132.00
2019-04-26T06:51:36.065Z,136.00
2019-04-26T06:52:36.053Z,136.00
2019-04-26T06:53:36.073Z,140.00
2019-04-26T06:54:36.037Z,140.00
2019-04-26T06:55:36.021Z,144.00
2019-04-26T06:56:36.010Z,140.00
2019-04-26T06:57:35.999Z,144.00
2019-04-26T06:58:35.988Z,148.00
2019-04-26T06:59:36.822Z,152.00
2019-04-26T07:00:35.966Z,156.00
2019-04-26T07:01:35.961Z,164.00
2019-04-26T07:02:35.945Z,164.00
2019-04-26T07:03:35.932Z,168.00
2019-04-26T07:04:35.922Z,176.00
2019-04-26T07:05:35.939Z,184.00
2019-04-26T07:06:35.899Z,188.00
2019-04-26T07:07:35.887Z,192.00
2019-04-26T07:08:35.877Z,196.00
2019-04-26T07:09:35.868Z,196.00
2019-04-26T07:10:35.856Z,184.00
2019-04-26T07:11:35.873Z,200.00
2019-04-26T07:12:35.834Z,212.00
2019-04-26T07:13:35.823Z,204.00
2019-04-26T07:14:35.810Z,220.00
2019-04-26T07:15:35.809Z,224.00
2019-04-26T07:16:35.791Z,224.00
2019-04-26T07:17:35.810Z,224.00
2019-04-26T07:18:35.768Z,224.00
2019-04-26T07:19:35.761Z,208.00
2019-04-26T07:20:35.746Z,208.00
2019-04-26T07:21:35.737Z,232.00
2019-04-26T07:22:35.940Z,216.00
2019-04-26T07:23:35.745Z,204.00
2019-04-26T07:24:35.711Z,212.00
2019-04-26T07:25:35.690Z,192.00
2019-04-26T07:26:35.679Z,196.00
2019-04-26T07:27:35.670Z,188.00
2019-04-26T07:28:35.658Z,176.00
2019-04-26T07:29:35.654Z,176.00
2019-04-26T07:30:35.636Z,172.00
2019-04-26T07:31:35.627Z,168.00
2019-04-26T07:32:35.614Z,168.00
2019-04-26T07:33:35.603Z,200.00
2019-04-26T07:34:35.592Z,180.00
2019-04-26T07:35:35.610Z,172.00
2019-04-26T07:36:35.570Z,208.00
2019-04-26T07:37:35.559Z,208.00
2019-04-26T07:38:35.547Z,212.00
2019-04-26T07:39:35.537Z,176.00
2019-04-26T07:40:35.528Z,176.00
2019-04-26T07:41:35.546Z,208.00
2019-04-26T07:42:35.509Z,232.00
2019-04-26T07:43:35.494Z,204.00
2019-04-26T07:44:35.482Z,180.00
2019-04-26T07:45:35.470Z,176.00
2019-04-26T07:46:35.459Z,176.00
2019-04-26T07:47:35.455Z,176.00
2019-04-26T07:48:35.441Z,180.00
2019-04-26T07:49:35.426Z,184.00
2019-04-26T07:50:35.416Z,184.00
2019-04-26T07:51:35.410Z,188.00
2019-04-26T07:52:35.449Z,192.00
2019-04-26T07:53:35.395Z,196.00
2019-04-26T07:54:35.376Z,196.00
2019-04-26T07:55:35.371Z,204.00
2019-04-26T07:56:35.351Z,236.00
2019-04-26T07:57:35.338Z,292.00
2019-04-26T07:58:35.327Z,256.00
2019-04-26T07:59:35.351Z,292.00
2019-04-26T08:00:44.584Z,240.00
2019-04-26T08:01:36.298Z,220.00
2019-04-26T08:02:35.285Z,220.00
2019-04-26T08:03:35.274Z,224.00
2019-04-26T08:04:35.265Z,232.00
2019-04-26T08:05:35.259Z,264.00
2019-04-26T08:06:35.239Z,308.00
2019-04-26T08:07:35.227Z,300.00
2019-04-26T08:08:35.218Z,296.00
2019-04-26T08:09:35.207Z,268.00
2019-04-26T08:10:35.196Z,284.00
2019-04-26T08:11:35.217Z,324.00
2019-04-26T08:12:35.174Z,332.00
2019-04-26T08:13:35.165Z,320.00
2019-04-26T08:14:35.153Z,312.00
2019-04-26T08:15:35.140Z,332.00
2019-04-26T08:16:35.132Z,280.00
2019-04-26T08:17:35.151Z,320.00
2019-04-26T08:18:35.110Z,372.00
2019-04-26T08:19:35.096Z,336.00
2019-04-26T08:20:35.086Z,356.00
2019-04-26T08:21:35.075Z,340.00
2019-04-26T08:22:35.063Z,312.00
2019-04-26T08:23:41.652Z,300.00
2019-04-26T08:24:36.039Z,280.00
2019-04-26T08:25:35.031Z,296.00
2019-04-26T08:26:35.019Z,296.00
2019-04-26T08:27:35.007Z,328.00
2019-04-26T08:28:34.997Z,292.00
2019-04-26T08:29:34.995Z,288.00
2019-04-26T08:30:34.976Z,264.00
2019-04-26T08:31:34.965Z,264.00
2019-04-26T08:32:34.954Z,252.00
2019-04-26T08:33:34.943Z,260.00
2019-04-26T08:34:34.931Z,256.00
2019-04-26T08:35:34.975Z,268.00
2019-04-26T08:36:34.909Z,284.00
2019-04-26T08:37:36.523Z,264.00
2019-04-26T08:38:34.893Z,268.00
2019-04-26T08:39:44.903Z,300.00
2019-04-26T08:40:35.870Z,340.00
2019-04-26T08:41:35.247Z,340.00
2019-04-26T08:42:34.843Z,284.00
2019-04-26T08:43:34.832Z,296.00
2019-04-26T08:44:35.602Z,356.00
2019-04-26T08:45:34.811Z,360.00
2019-04-26T08:46:36.260Z,360.00
2019-04-26T08:47:34.789Z,360.00
2019-04-26T08:48:34.783Z,360.00
2019-04-26T08:49:35.110Z,360.00
2019-04-26T08:50:34.756Z,360.00
2019-04-26T08:51:34.745Z,360.00
2019-04-26T08:52:34.768Z,292.00
2019-04-26T08:53:34.723Z,340.00
2019-04-26T08:54:34.712Z,280.00
2019-04-26T08:55:34.703Z,344.00
2019-04-26T08:56:34.698Z,352.00
2019-04-26T08:57:34.679Z,344.00
2019-04-26T08:58:34.693Z,304.00
2019-04-26T08:59:34.658Z,288.00
2019-04-26T09:00:34.647Z,296.00
2019-04-26T09:01:34.635Z,264.00
2019-04-26T09:02:34.625Z,272.00
2019-04-26T09:03:34.613Z,248.00
2019-04-26T09:04:34.635Z,232.00
2019-04-26T09:05:34.620Z,212.00
2019-04-26T09:06:34.580Z,208.00
2019-04-26T09:07:36.396Z,208.00
2019-04-26T09:08:34.559Z,208.00
2019-04-26T09:09:34.547Z,208.00
2019-04-26T09:10:34.565Z,208.00
2019-04-26T09:11:35.093Z,208.00
2019-04-26T09:12:34.514Z,204.00
2019-04-26T09:13:34.504Z,204.00
2019-04-26T09:14:34.492Z,200.00
2019-04-26T09:15:34.487Z,200.00
2019-04-26T09:16:34.520Z,200.00
2019-04-26T09:17:34.462Z,200.00
2019-04-26T09:18:43.058Z,196.00
2019-04-26T09:19:35.438Z,188.00
2019-04-26T09:20:34.437Z,184.00
2019-04-26T09:21:34.417Z,188.00
2019-04-26T09:22:34.412Z,192.00
2019-04-26T09:23:40.317Z,196.00
2019-04-26T09:24:35.386Z,196.00
2019-04-26T09:25:39.025Z,200.00
2019-04-26T09:26:34.363Z,204.00
2019-04-26T09:27:34.352Z,208.00
2019-04-26T09:28:34.369Z,212.00
2019-04-26T09:29:34.330Z,220.00
2019-04-26T09:30:34.703Z,228.00
2019-04-26T09:31:34.313Z,240.00
2019-04-26T09:32:34.297Z,248.00
2019-04-26T09:33:36.039Z,252.00
2019-04-26T09:34:34.314Z,260.00
2019-04-26T09:35:34.273Z,268.00
2019-04-26T09:36:34.253Z,272.00
2019-04-26T09:37:34.241Z,280.00
2019-04-26T09:38:34.230Z,284.00
2019-04-26T09:39:34.220Z,292.00
2019-04-26T09:40:34.215Z,296.00
2019-04-26T09:41:34.198Z,304.00
2019-04-26T09:42:34.187Z,304.00
2019-04-26T09:43:34.178Z,304.00
2019-04-26T09:44:34.166Z,304.00
2019-04-26T09:45:34.154Z,296.00
2019-04-26T09:46:34.178Z,308.00
2019-04-26T09:47:34.131Z,316.00
2019-04-26T09:48:36.659Z,352.00
2019-04-26T09:49:37.358Z,352.00
2019-04-26T09:50:34.099Z,308.00
2019-04-26T09:51:34.797Z,332.00
2019-04-26T09:52:34.084Z,304.00
2019-04-26T09:53:34.066Z,300.00
2019-04-26T09:54:34.055Z,296.00
2019-04-26T09:55:35.498Z,288.00
2019-04-26T09:56:34.033Z,284.00
2019-04-26T09:57:34.023Z,248.00
2019-04-26T09:58:34.020Z,268.00
2019-04-26T09:59:36.249Z,276.00
2019-04-26T10:00:34.989Z,256.00
2019-04-26T10:01:33.981Z,256.00
2019-04-26T10:02:35.347Z,260.00
2019-04-26T10:03:34.404Z,268.00
2019-04-26T10:04:33.979Z,272.00
2019-04-26T10:05:33.934Z,276.00
2019-04-26T10:06:33.924Z,284.00
2019-04-26T10:07:37.553Z,292.00
2019-04-26T10:08:33.902Z,292.00
2019-04-26T10:09:33.892Z,300.00
2019-04-26T10:10:35.317Z,300.00
2019-04-26T10:11:33.869Z,300.00
2019-04-26T10:12:33.858Z,300.00
2019-04-26T10:13:33.847Z,368.00
2019-04-26T10:14:33.837Z,292.00
2019-04-26T10:15:33.826Z,284.00
2019-04-26T10:16:37.675Z,288.00
2019-04-26T10:17:34.803Z,324.00
2019-04-26T10:18:33.794Z,320.00
2019-04-26T10:19:33.781Z,380.00
2019-04-26T10:20:33.774Z,444.00
2019-04-26T10:21:33.759Z,420.00
2019-04-26T10:22:33.782Z,440.00
2019-04-26T10:23:33.738Z,432.00
2019-04-26T10:24:33.730Z,424.00
2019-04-26T10:25:33.723Z,456.00
2019-04-26T10:26:33.705Z,392.00
2019-04-26T10:27:36.302Z,472.00
2019-04-26T10:28:34.715Z,500.00
2019-04-26T10:29:33.672Z,500.00
2019-04-26T10:30:33.661Z,488.00
2019-04-26T10:31:33.651Z,496.00
2019-04-26T10:32:33.639Z,496.00
2019-04-26T10:33:36.516Z,476.00
2019-04-26T10:34:33.652Z,496.00
2019-04-26T10:35:33.613Z,504.00
2019-04-26T10:36:33.596Z,508.00
2019-04-26T10:37:39.469Z,496.00
2019-04-26T10:38:34.571Z,484.00
2019-04-26T10:39:36.742Z,492.00
2019-04-26T10:40:35.648Z,512.00
2019-04-26T10:41:33.542Z,516.00
2019-04-26T10:42:33.532Z,524.00
2019-04-26T10:43:33.519Z,532.00
2019-04-26T10:44:35.746Z,528.00
2019-04-26T10:45:34.503Z,532.00
2019-04-26T10:46:33.488Z,532.00
2019-04-26T10:47:34.283Z,540.00
2019-04-26T10:48:33.466Z,540.00
2019-04-26T10:49:33.453Z,536.00
2019-04-26T10:50:34.467Z,536.00
2019-04-26T10:51:33.462Z,540.00
2019-04-26T10:52:33.421Z,552.00
2019-04-26T10:53:33.409Z,548.00
2019-04-26T10:54:36.807Z,544.00
2019-04-26T10:55:34.387Z,548.00
2019-04-26T10:56:33.377Z,552.00
2019-04-26T10:57:33.403Z,552.00
2019-04-26T10:58:36.205Z,556.00
2019-04-26T10:59:33.394Z,560.00
2019-04-26T11:00:33.333Z,564.00
2019-04-26T11:01:33.323Z,564.00
2019-04-26T11:02:33.311Z,572.00
2019-04-26T11:03:35.045Z,576.00
2019-04-26T11:04:33.290Z,576.00
2019-04-26T11:05:33.313Z,576.00
2019-04-26T11:06:33.273Z,568.00
2019-04-26T11:07:33.256Z,580.00
2019-04-26T11:08:33.247Z,588.00
2019-04-26T11:09:33.270Z,588.00
2019-04-26T11:10:33.225Z,592.00
2019-04-26T11:11:33.213Z,600.00
2019-04-26T11:12:33.202Z,608.00
2019-04-26T11:13:33.191Z,616.00
2019-04-26T11:14:33.181Z,600.00
2019-04-26T11:15:34.083Z,612.00
2019-04-26T11:16:33.159Z,620.00
2019-04-26T11:17:33.147Z,632.00
2019-04-26T11:18:33.138Z,636.00
2019-04-26T11:19:35.560Z,636.00
2019-04-26T11:20:33.115Z,636.00
2019-04-26T11:21:33.139Z,628.00
2019-04-26T11:22:33.418Z,612.00
2019-04-26T11:23:33.082Z,636.00
2019-04-26T11:24:33.070Z,648.00
2019-04-26T11:25:33.059Z,656.00
2019-04-26T11:26:34.687Z,668.00
2019-04-26T11:27:33.071Z,620.00
2019-04-26T11:28:33.027Z,632.00
2019-04-26T11:29:33.016Z,596.00
2019-04-26T11:30:33.045Z,584.00
2019-04-26T11:31:32.997Z,516.00
2019-04-26T11:32:33.322Z,548.00
2019-04-26T11:33:44.258Z,700.00
2019-04-26T11:34:33.973Z,724.00
2019-04-26T11:35:34.456Z,740.00
2019-04-26T11:36:32.939Z,748.00
2019-04-26T11:37:32.950Z,764.00
2019-04-26T11:38:33.035Z,656.00
2019-04-26T11:39:36.535Z,656.00
2019-04-26T11:40:33.895Z,648.00
2019-04-26T11:41:34.003Z,752.00
2019-04-26T11:42:32.876Z,784.00
2019-04-26T11:43:32.863Z,808.00
2019-04-26T11:44:32.852Z,820.00
2019-04-26T11:45:32.875Z,748.00
2019-04-26T11:46:44.206Z,708.00
2019-04-26T11:47:37.194Z,492.00
2019-04-26T11:48:33.807Z,480.00
2019-04-26T11:49:32.799Z,544.00
2019-04-26T11:50:32.787Z,672.00
2019-04-26T11:51:32.811Z,796.00
2019-04-26T11:52:36.019Z,788.00
2019-04-26T11:53:33.534Z,744.00
2019-04-26T11:54:32.743Z,708.00
2019-04-26T11:55:32.732Z,840.00
2019-04-26T11:56:33.956Z,648.00
2019-04-26T11:57:32.743Z,568.00
2019-04-26T11:58:32.700Z,528.00
2019-04-26T11:59:32.689Z,828.00
2019-04-26T12:00:32.678Z,604.00
2019-04-26T12:01:32.669Z,448.00
2019-04-26T12:02:32.655Z,480.00
2019-04-26T12:03:32.675Z,748.00
2019-04-26T12:04:32.636Z,600.00
2019-04-26T12:05:32.626Z,560.00
2019-04-26T12:06:32.612Z,608.00
2019-04-26T12:07:32.602Z,1016.00
2019-04-26T12:08:32.591Z,1400.00
2019-04-26T12:09:32.609Z,960.00
2019-04-26T12:10:32.569Z,1140.00
2019-04-26T12:11:35.194Z,700.00
2019-04-26T12:12:32.548Z,904.00
2019-04-26T12:13:32.555Z,776.00
2019-04-26T12:14:33.463Z,736.00
2019-04-26T12:15:32.543Z,780.00
2019-04-26T12:16:32.503Z,608.00
2019-04-26T12:17:35.158Z,676.00
2019-04-26T12:18:32.572Z,876.00
2019-04-26T12:19:32.470Z,780.00
2019-04-26T12:20:32.460Z,544.00
2019-04-26T12:21:34.127Z,632.00
2019-04-26T12:22:32.438Z,400.00
2019-04-26T12:23:32.427Z,348.00
2019-04-26T12:24:34.450Z,320.00
2019-04-26T12:25:32.404Z,388.00
2019-04-26T12:26:42.284Z,464.00
2019-04-26T12:27:33.495Z,500.00
2019-04-26T12:28:32.372Z,456.00
2019-04-26T12:29:32.361Z,448.00
2019-04-26T12:30:32.350Z,436.00
2019-04-26T12:31:32.339Z,444.00
2019-04-26T12:32:32.328Z,528.00
2019-04-26T12:33:32.345Z,556.00
2019-04-26T12:34:32.306Z,660.00
2019-04-26T12:35:32.295Z,716.00
2019-04-26T12:36:32.285Z,824.00
2019-04-26T12:37:32.273Z,644.00
2019-04-26T12:38:32.262Z,628.00
2019-04-26T12:39:36.464Z,780.00
2019-04-26T12:40:33.242Z,596.00
2019-04-26T12:41:40.202Z,424.00
2019-04-26T12:42:33.218Z,748.00
2019-04-26T12:43:32.208Z,916.00
2019-04-26T12:44:36.295Z,932.00
2019-04-26T12:45:32.192Z,900.00
2019-04-26T12:46:32.177Z,852.00
2019-04-26T12:47:34.497Z,836.00